Time;durP1;ratioP1;P1;durP2;ratioP2;P2;SDS_P1;SDS_P2;PMS_P1;PMS_P2;Temp;Humidity;BMP_temperature;BMP_pressure;BME280_temperature;BME280_humidity;BME280_pressure;Samples;Min_cycle;Max_cycle;Signal;HPM_P1;HPM_P2
2022/04/22 00:00:23;;;;;;;1.67;0.63;;;;;;;;;;5016723;28;20041;-68
2022/04/22 00:02:49;;;;;;;0.50;0.50;;;;;;;;;;5016054;28;20041;-68
2022/04/22 00:05:16;;;;;;;0.30;0.30;;;;;;;;;;5016387;28;20037;-68
2022/04/22 00:07:42;;;;;;;0.10;0.10;;;;;;;;;;5016605;28;20037;-68
2022/04/22 00:10:10;;;;;;;0.10;0.10;;;;;;;;;;5016020;28;20077;-68
2022/04/22 00:12:37;;;;;;;0.47;0.47;;;;;;;;;;5015705;28;20034;-68
2022/04/22 00:15:04;;;;;;;0.30;0.30;;;;;;;;;;5015852;28;20049;-68
2022/04/22 00:17:30;;;;;;;0.20;0.20;;;;;;;;;;5016079;28;20050;-68
2022/04/22 00:19:56;;;;;;;0.13;0.13;;;;;;;;;;5016098;28;20049;-68
2022/04/22 00:22:23;;;;;;;0.10;0.10;;;;;;;;;;5016444;28;20044;-68
2022/04/22 00:24:50;;;;;;;0.10;0.10;;;;;;;;;;5015658;28;20138;-68
2022/04/22 00:27:16;;;;;;;0.30;0.30;;;;;;;;;;5016208;28;20042;-68
2022/04/22 00:29:42;;;;;;;0.68;0.68;;;;;;;;;;5016226;28;20087;-68
2022/04/22 00:32:08;;;;;;;0.28;0.28;;;;;;;;;;5016128;28;20041;-68
2022/04/22 00:34:34;;;;;;;0.20;0.20;;;;;;;;;;5016118;28;20130;-68
2022/04/22 00:37:00;;;;;;;0.20;0.20;;;;;;;;;;5015952;28;20057;-68
2022/04/22 00:39:26;;;;;;;0.30;0.30;;;;;;;;;;5016312;28;20547;-68
2022/04/22 00:41:52;;;;;;;1.23;0.17;;;;;;;;;;5015817;28;20042;-68
2022/04/22 00:44:19;;;;;;;0.38;0.38;;;;;;;;;;5015959;28;20046;-68
2022/04/22 00:46:45;;;;;;;0.47;0.47;;;;;;;;;;5016473;28;20052;-68
2022/04/22 00:49:11;;;;;;;0.15;0.10;;;;;;;;;;5015870;28;20053;-68
2022/04/22 00:51:38;;;;;;;0.65;0.35;;;;;;;;;;5016045;28;20065;-68
2022/04/22 00:54:05;;;;;;;0.10;0.10;;;;;;;;;;5015928;28;20139;-68
2022/04/22 00:56:31;;;;;;;0.20;0.20;;;;;;;;;;5015491;28;20370;-68
2022/04/22 00:58:58;;;;;;;0.60;0.43;;;;;;;;;;5015661;28;20051;-68
2022/04/22 01:01:24;;;;;;;0.10;0.10;;;;;;;;;;5015580;28;20065;-68
2022/04/22 01:12:09;;;;;;;0.10;0.10;;;;;;;;;;5014802;28;20065;-68
2022/04/22 01:14:35;;;;;;;0.68;0.68;;;;;;;;;;5015439;28;20034;-68
2022/04/22 01:17:01;;;;;;;0.40;0.40;;;;;;;;;;5015584;28;20053;-68
2022/04/22 01:19:28;;;;;;;0.10;0.10;;;;;;;;;;5015589;28;20030;-68
2022/04/22 01:21:55;;;;;;;0.10;0.10;;;;;;;;;;5015320;28;20113;-68
2022/04/22 01:24:21;;;;;;;0.50;0.50;;;;;;;;;;5015305;28;20049;-68
2022/04/22 01:26:49;;;;;;;0.10;0.10;;;;;;;;;;5015717;28;20046;-68
2022/04/22 01:29:16;;;;;;;0.10;0.10;;;;;;;;;;5014792;28;20085;-68
2022/04/22 01:31:43;;;;;;;0.10;0.10;;;;;;;;;;5014927;28;20040;-68
2022/04/22 01:34:10;;;;;;;0.17;0.17;;;;;;;;;;5015152;28;20072;-68
2022/04/22 01:36:36;;;;;;;0.10;0.10;;;;;;;;;;5015179;28;20485;-68
2022/04/22 01:39:02;;;;;;;0.10;0.10;;;;;;;;;;5014937;28;20046;-68
2022/04/22 01:41:29;;;;;;;0.10;0.10;;;;;;;;;;5014690;28;20122;-68
2022/04/22 01:43:55;;;;;;;0.20;0.20;;;;;;;;;;5015036;28;20452;-68
2022/04/22 01:46:22;;;;;;;0.30;0.30;;;;;;;;;;5014860;28;20120;-68
2022/04/22 01:48:48;;;;;;;0.30;0.30;;;;;;;;;;5014768;28;20045;-68
2022/04/22 01:51:14;;;;;;;0.20;0.20;;;;;;;;;;5014972;28;20040;-68
2022/04/22 01:53:41;;;;;;;0.10;0.10;;;;;;;;;;5014799;28;20049;-68
2022/04/22 01:56:07;;;;;;;0.20;0.20;;;;;;;;;;5014803;28;20048;-68
2022/04/22 01:58:33;;;;;;;0.57;0.20;;;;;;;;;;5014873;28;20041;-68
2022/04/22 02:00:59;;;;;;;0.17;0.17;;;;;;;;;;5014937;28;20045;-68
2022/04/22 02:03:25;;;;;;;0.20;0.20;;;;;;;;;;5014982;28;20041;-68
2022/04/22 02:05:51;;;;;;;4.38;1.35;;;;;;;;;;5014842;28;20045;-68
2022/04/22 02:08:19;;;;;;;0.17;0.17;;;;;;;;;;5014791;28;20042;-68
2022/04/22 02:10:46;;;;;;;0.10;0.10;;;;;;;;;;5014753;28;20030;-68
2022/04/22 02:13:12;;;;;;;0.10;0.10;;;;;;;;;;5014235;28;20045;-68
2022/04/22 02:15:38;;;;;;;0.10;0.10;;;;;;;;;;5014971;28;20104;-68
2022/04/22 02:18:04;;;;;;;1.85;0.40;;;;;;;;;;5015012;28;20046;-68
2022/04/22 02:20:31;;;;;;;0.10;0.10;;;;;;;;;;5014685;28;20513;-68
2022/04/22 02:22:57;;;;;;;0.80;0.80;;;;;;;;;;5014388;28;20042;-68
2022/04/22 02:25:23;;;;;;;0.10;0.10;;;;;;;;;;5014906;28;20034;-68
2022/04/22 02:30:34;;;;;;;0.35;0.35;;;;;;;;;;5014414;28;20041;-68
2022/04/22 02:33:00;;;;;;;0.20;0.20;;;;;;;;;;5014337;28;20038;-68
2022/04/22 02:35:26;;;;;;;0.10;0.10;;;;;;;;;;5014217;28;20037;-68
2022/04/22 02:37:55;;;;;;;0.10;0.10;;;;;;;;;;5013959;28;20409;-68
2022/04/22 02:46:05;;;;;;;0.55;0.20;;;;;;;;;;5014278;28;20044;-68
2022/04/22 02:48:31;;;;;;;0.60;0.30;;;;;;;;;;5013626;28;20515;-68
2022/04/22 02:50:57;;;;;;;0.10;0.10;;;;;;;;;;5013889;28;20037;-68
2022/04/22 02:53:23;;;;;;;0.10;0.10;;;;;;;;;;5014280;28;20072;-68
2022/04/22 02:55:51;;;;;;;0.10;0.10;;;;;;;;;;5013766;28;20204;-68
2022/04/22 02:58:17;;;;;;;0.40;0.40;;;;;;;;;;5013798;28;20076;-68
2022/04/22 03:00:43;;;;;;;0.10;0.10;;;;;;;;;;5014100;28;20037;-68
2022/04/22 03:03:09;;;;;;;0.20;0.20;;;;;;;;;;5017301;28;20044;-68
2022/04/22 03:05:35;;;;;;;0.10;0.10;;;;;;;;;;5017528;28;20041;-68
2022/04/22 03:08:02;;;;;;;0.20;0.20;;;;;;;;;;5017454;28;20124;-68
2022/04/22 03:10:29;;;;;;;0.15;0.15;;;;;;;;;;5017433;28;20121;-68
2022/04/22 03:12:56;;;;;;;0.32;0.32;;;;;;;;;;5016863;28;20034;-68
2022/04/22 03:15:22;;;;;;;0.20;0.10;;;;;;;;;;5017459;28;20048;-68
2022/04/22 03:17:49;;;;;;;0.30;0.30;;;;;;;;;;5017416;28;20064;-68
2022/04/22 03:20:15;;;;;;;0.15;0.15;;;;;;;;;;5017194;28;20034;-68
2022/04/22 03:22:41;;;;;;;0.10;0.10;;;;;;;;;;5017188;28;20095;-68
2022/04/22 03:25:08;;;;;;;0.10;0.10;;;;;;;;;;5017485;28;20098;-68
2022/04/22 03:27:34;;;;;;;0.10;0.10;;;;;;;;;;5016381;28;20076;-68
2022/04/22 03:30:02;;;;;;;0.20;0.20;;;;;;;;;;5017170;28;20093;-68
2022/04/22 03:32:28;;;;;;;0.10;0.10;;;;;;;;;;5016665;28;20030;-68
2022/04/22 03:34:54;;;;;;;0.55;0.55;;;;;;;;;;5017001;28;20049;-68
2022/04/22 03:37:20;;;;;;;0.10;0.10;;;;;;;;;;5017170;28;20133;-68
2022/04/22 03:39:47;;;;;;;0.10;0.10;;;;;;;;;;5016883;28;20125;-68
2022/04/22 03:42:13;;;;;;;0.10;0.10;;;;;;;;;;5016710;28;20507;-68
2022/04/22 03:44:39;;;;;;;0.10;0.10;;;;;;;;;;5016708;28;20094;-68
2022/04/22 03:47:07;;;;;;;0.10;0.10;;;;;;;;;;5017222;28;20049;-68
2022/04/22 03:49:34;;;;;;;0.10;0.10;;;;;;;;;;5017475;28;20042;-68
2022/04/22 03:52:00;;;;;;;0.10;0.10;;;;;;;;;;5016352;28;20064;-68
2022/04/22 03:54:26;;;;;;;0.00;0.00;;;;;;;;;;5016316;28;20048;-68
2022/04/22 03:59:37;;;;;;;0.10;0.10;;;;;;;;;;5015843;28;20081;-68
2022/04/22 04:02:03;;;;;;;0.30;0.30;;;;;;;;;;5016452;28;20038;-68
2022/04/22 04:04:31;;;;;;;0.10;0.10;;;;;;;;;;5015531;28;20042;-68
2022/04/22 04:06:57;;;;;;;0.45;0.45;;;;;;;;;;5016471;28;20046;-68
2022/04/22 04:17:38;;;;;;;0.10;0.10;;;;;;;;;;5014554;28;20068;-68
2022/04/22 04:25:35;;;;;;;0.10;0.10;;;;;;;;;;5015570;28;20048;-69
2022/04/22 04:28:02;;;;;;;0.10;0.10;;;;;;;;;;5014957;28;20077;-69
2022/04/22 04:30:29;;;;;;;0.10;0.10;;;;;;;;;;5016527;28;20037;-68
2022/04/22 04:32:55;;;;;;;0.10;0.10;;;;;;;;;;5015698;28;20038;-67
2022/04/22 04:35:21;;;;;;;0.10;0.10;;;;;;;;;;5015359;28;20496;-69
2022/04/22 04:37:47;;;;;;;0.38;0.38;;;;;;;;;;5016473;28;20042;-70
2022/04/22 04:40:13;;;;;;;0.10;0.10;;;;;;;;;;5015649;28;20041;-68
2022/04/22 04:42:41;;;;;;;0.10;0.10;;;;;;;;;;5015470;28;20129;-68
2022/04/22 04:45:07;;;;;;;0.20;0.20;;;;;;;;;;5015515;28;20030;-68
2022/04/22 04:47:43;;;;;;;0.10;0.10;;;;;;;;;;5015523;28;20046;-68
2022/04/22 04:50:09;;;;;;;0.10;0.10;;;;;;;;;;5015557;28;20044;-68
2022/04/22 04:52:37;;;;;;;0.10;0.10;;;;;;;;;;5015504;28;20037;-68
2022/04/22 04:55:04;;;;;;;0.38;0.32;;;;;;;;;;5015359;28;20034;-68
2022/04/22 04:57:30;;;;;;;0.17;0.17;;;;;;;;;;5015447;28;20586;-68
2022/04/22 04:59:56;;;;;;;0.10;0.10;;;;;;;;;;5015462;28;20116;-68
2022/04/22 05:02:23;;;;;;;0.10;0.10;;;;;;;;;;5015610;28;20042;-68
2022/04/22 05:04:49;;;;;;;0.25;0.25;;;;;;;;;;5015282;28;20084;-68
2022/04/22 05:07:15;;;;;;;0.32;0.32;;;;;;;;;;5015500;28;20073;-68
2022/04/22 05:09:41;;;;;;;0.08;0.08;;;;;;;;;;5015560;28;20041;-68
2022/04/22 05:12:10;;;;;;;0.10;0.10;;;;;;;;;;5015052;28;20042;-68
2022/04/22 05:14:36;;;;;;;0.10;0.10;;;;;;;;;;5015436;28;20034;-68
2022/04/22 05:17:02;;;;;;;0.10;0.10;;;;;;;;;;5015614;28;20058;-68
2022/04/22 05:19:29;;;;;;;0.10;0.10;;;;;;;;;;5015175;28;20038;-68
2022/04/22 05:21:57;;;;;;;0.30;0.30;;;;;;;;;;5015117;28;20048;-68
2022/04/22 05:24:24;;;;;;;0.75;0.32;;;;;;;;;;5014437;28;20048;-68
2022/04/22 05:26:51;;;;;;;2.20;0.63;;;;;;;;;;5014548;28;20077;-68
2022/04/22 05:34:46;;;;;;;0.10;0.10;;;;;;;;;;5014421;28;20108;-68
2022/04/22 05:37:12;;;;;;;0.10;0.10;;;;;;;;;;5015000;28;20487;-68
2022/04/22 05:39:38;;;;;;;0.10;0.10;;;;;;;;;;5014596;28;20042;-68
2022/04/22 05:42:04;;;;;;;0.10;0.10;;;;;;;;;;5014590;28;20034;-68
2022/04/22 05:44:31;;;;;;;1.77;0.20;;;;;;;;;;5015371;28;20104;-68
2022/04/22 05:46:57;;;;;;;0.20;0.20;;;;;;;;;;5015052;28;20049;-68
2022/04/22 05:49:23;;;;;;;0.20;0.20;;;;;;;;;;5014748;28;20125;-68
2022/04/22 05:51:49;;;;;;;0.20;0.20;;;;;;;;;;5014943;28;20489;-68
2022/04/22 05:54:15;;;;;;;0.13;0.13;;;;;;;;;;5014683;28;20121;-68
2022/04/22 05:56:41;;;;;;;0.13;0.13;;;;;;;;;;5014962;28;20046;-68
2022/04/22 05:59:07;;;;;;;0.10;0.10;;;;;;;;;;5014684;28;20049;-68
2022/04/22 06:01:33;;;;;;;0.20;0.20;;;;;;;;;;5014643;28;20041;-68
2022/04/22 06:03:59;;;;;;;0.10;0.10;;;;;;;;;;5014357;28;20121;-68
2022/04/22 06:06:26;;;;;;;0.17;0.17;;;;;;;;;;5014383;28;20048;-68
2022/04/22 06:11:36;;;;;;;0.25;0.25;;;;;;;;;;5014327;28;20092;-68
2022/04/22 06:14:02;;;;;;;0.20;0.20;;;;;;;;;;5014541;28;20087;-68
2022/04/22 06:16:29;;;;;;;0.15;0.15;;;;;;;;;;5014456;28;20069;-69
2022/04/22 06:18:55;;;;;;;0.20;0.20;;;;;;;;;;5014496;28;20045;-68
2022/04/22 06:21:21;;;;;;;0.10;0.10;;;;;;;;;;5014439;28;20042;-68
2022/04/22 06:23:47;;;;;;;0.20;0.20;;;;;;;;;;5014464;28;20038;-69
2022/04/22 06:26:13;;;;;;;0.20;0.20;;;;;;;;;;5014398;28;20040;-69
2022/04/22 06:28:39;;;;;;;0.10;0.10;;;;;;;;;;5014011;28;20069;-68
2022/04/22 06:31:06;;;;;;;0.30;0.30;;;;;;;;;;5014880;28;20512;-68
2022/04/22 06:33:32;;;;;;;0.17;0.17;;;;;;;;;;5014465;28;20128;-68
2022/04/22 06:36:00;;;;;;;0.20;0.20;;;;;;;;;;5015678;28;20105;-68
2022/04/22 06:38:27;;;;;;;0.38;0.38;;;;;;;;;;5017950;28;20051;-68
2022/04/22 06:46:23;;;;;;;0.10;0.10;;;;;;;;;;5025751;28;20057;-68
2022/04/22 06:48:49;;;;;;;0.30;0.30;;;;;;;;;;5022449;28;20063;-68
2022/04/22 06:51:20;;;;;;;0.10;0.10;;;;;;;;;;5036212;28;20163;-69
2022/04/22 06:53:47;;;;;;;0.30;0.30;;;;;;;;;;5025161;28;20054;-68
2022/04/22 06:56:13;;;;;;;0.10;0.10;;;;;;;;;;5017937;28;20057;-68
2022/04/22 06:58:40;;;;;;;0.73;0.60;;;;;;;;;;5017080;28;20048;-68
2022/04/22 07:01:07;;;;;;;0.17;0.17;;;;;;;;;;5017587;28;20151;-68
2022/04/22 07:03:33;;;;;;;0.10;0.10;;;;;;;;;;5017175;28;20169;-68
2022/04/22 07:05:59;;;;;;;0.32;0.32;;;;;;;;;;5017454;28;20523;-68
2022/04/22 07:08:25;;;;;;;0.20;0.20;;;;;;;;;;5017604;28;20041;-68
2022/04/22 07:10:52;;;;;;;0.10;0.10;;;;;;;;;;5017193;28;20045;-68
2022/04/22 07:13:18;;;;;;;0.55;0.52;;;;;;;;;;5018111;28;20066;-68
2022/04/22 07:15:46;;;;;;;0.10;0.10;;;;;;;;;;5017761;28;20128;-68
2022/04/22 07:18:13;;;;;;;0.35;0.30;;;;;;;;;;5017286;28;20497;-68
2022/04/22 07:20:39;;;;;;;0.38;0.38;;;;;;;;;;4997691;28;20053;-68
2022/04/22 07:23:05;;;;;;;0.10;0.10;;;;;;;;;;4997321;28;20035;-68
2022/04/22 07:25:32;;;;;;;0.30;0.30;;;;;;;;;;4997535;28;20091;-68
2022/04/22 07:27:59;;;;;;;0.10;0.10;;;;;;;;;;4997114;28;20054;-68
2022/04/22 07:30:25;;;;;;;0.77;0.77;;;;;;;;;;4998204;28;20046;-68
2022/04/22 07:32:51;;;;;;;1.08;0.55;;;;;;;;;;5017523;28;20033;-68
2022/04/22 07:35:19;;;;;;;0.30;0.30;;;;;;;;;;5030979;28;20041;-68
2022/04/22 07:37:46;;;;;;;0.43;0.43;;;;;;;;;;5006435;28;20440;-68
2022/04/22 07:40:14;;;;;;;0.30;0.25;;;;;;;;;;5020651;28;20045;-67
2022/04/22 07:46:46;;;;;;;0.17;0.17;;;;;;;;;;5014489;28;20054;-67
2022/04/22 07:48:14;;;;;;;0.40;0.30;;;;;;;;;;5015487;28;20045;-67
2022/04/22 07:50:40;;;;;;;0.20;0.20;;;;;;;;;;5017027;28;20068;-67
2022/04/22 07:53:06;;;;;;;0.30;0.30;;;;;;;;;;5016695;28;20072;-67
2022/04/22 07:55:32;;;;;;;0.20;0.20;;;;;;;;;;5016612;28;20048;-67
2022/04/22 07:57:58;;;;;;;0.20;0.20;;;;;;;;;;5016924;28;20049;-67
2022/04/22 08:00:26;;;;;;;2.00;0.45;;;;;;;;;;5016844;28;20042;-67
2022/04/22 08:02:52;;;;;;;0.50;0.50;;;;;;;;;;5016649;28;20504;-67
2022/04/22 08:05:18;;;;;;;0.45;0.45;;;;;;;;;;5017013;28;20034;-67
2022/04/22 08:07:44;;;;;;;0.52;0.28;;;;;;;;;;5016714;28;20080;-67
2022/04/22 08:10:10;;;;;;;0.30;0.30;;;;;;;;;;5016638;28;20037;-67
2022/04/22 08:12:36;;;;;;;0.22;0.22;;;;;;;;;;5016410;28;20049;-67
2022/04/22 08:15:03;;;;;;;0.40;0.40;;;;;;;;;;5016835;28;20041;-67
2022/04/22 08:17:36;;;;;;;0.38;0.30;;;;;;;;;;5016654;28;20050;-67
2022/04/22 08:20:04;;;;;;;0.30;0.30;;;;;;;;;;5016148;28;20044;-67
2022/04/22 08:22:30;;;;;;;0.85;0.85;;;;;;;;;;5016301;28;20048;-67
2022/04/22 08:24:56;;;;;;;0.40;0.40;;;;;;;;;;5016354;28;20042;-67
2022/04/22 08:27:23;;;;;;;0.40;0.40;;;;;;;;;;5016505;28;20050;-67
2022/04/22 08:29:49;;;;;;;0.32;0.32;;;;;;;;;;5016110;28;20057;-67
2022/04/22 08:32:15;;;;;;;0.40;0.35;;;;;;;;;;5016214;28;20042;-67
2022/04/22 08:34:42;;;;;;;0.30;0.30;;;;;;;;;;5016304;28;20041;-67
2022/04/22 08:37:08;;;;;;;0.20;0.20;;;;;;;;;;5016277;28;20088;-67
2022/04/22 08:39:34;;;;;;;0.20;0.20;;;;;;;;;;5016376;28;20042;-67
2022/04/22 08:42:01;;;;;;;0.30;0.30;;;;;;;;;;5015772;28;20125;-67
2022/04/22 08:44:28;;;;;;;0.30;0.30;;;;;;;;;;5015934;28;20046;-67
2022/04/22 08:52:25;;;;;;;0.32;0.32;;;;;;;;;;5015748;28;20404;-67
2022/04/22 08:54:53;;;;;;;0.25;0.25;;;;;;;;;;5015560;28;20041;-67
2022/04/22 08:57:20;;;;;;;0.30;0.30;;;;;;;;;;5015954;28;20054;-67
2022/04/22 08:59:46;;;;;;;0.73;0.57;;;;;;;;;;5014600;28;20034;-67
2022/04/22 09:02:16;;;;;;;0.57;0.57;;;;;;;;;;5015847;28;20480;-67
2022/04/22 09:04:43;;;;;;;0.20;0.20;;;;;;;;;;5015846;28;20034;-67
2022/04/22 09:07:13;;;;;;;0.28;0.20;;;;;;;;;;5015569;28;20076;-66
2022/04/22 09:09:42;;;;;;;0.25;0.22;;;;;;;;;;5015907;28;20064;-67
2022/04/22 09:12:09;;;;;;;0.20;0.20;;;;;;;;;;5015135;28;20042;-67
2022/04/22 09:14:35;;;;;;;0.38;0.38;;;;;;;;;;5015307;28;20482;-67
2022/04/22 09:17:01;;;;;;;0.10;0.10;;;;;;;;;;5010034;28;20058;-67
2022/04/22 09:19:34;;;;;;;1.63;0.98;;;;;;;;;;4995794;28;20121;-67
2022/04/22 09:22:01;;;;;;;0.20;0.20;;;;;;;;;;4995832;28;20521;-67
2022/04/22 09:24:27;;;;;;;0.20;0.20;;;;;;;;;;4995774;28;20072;-67
2022/04/22 09:27:08;;;;;;;0.10;0.10;;;;;;;;;;4996019;28;20050;-67
2022/04/22 09:29:41;;;;;;;0.13;0.13;;;;;;;;;;4995288;28;20084;-67
2022/04/22 09:32:09;;;;;;;0.63;0.30;;;;;;;;;;4995360;28;20044;-67
2022/04/22 09:34:39;;;;;;;3.40;0.30;;;;;;;;;;4995579;28;20040;-67
2022/04/22 09:43:18;;;;;;;0.20;0.20;;;;;;;;;;4973340;28;20043;-67
2022/04/22 09:45:45;;;;;;;0.20;0.20;;;;;;;;;;4991061;28;20042;-67
2022/04/22 09:48:16;;;;;;;0.10;0.10;;;;;;;;;;4995971;28;20044;-67
2022/04/22 09:50:52;;;;;;;0.10;0.10;;;;;;;;;;4995977;28;20124;-67
2022/04/22 09:53:20;;;;;;;0.17;0.17;;;;;;;;;;4995300;28;20034;-67
2022/04/22 09:55:52;;;;;;;0.38;0.38;;;;;;;;;;4995235;28;20485;-67
2022/04/22 09:58:22;;;;;;;0.17;0.17;;;;;;;;;;4994862;28;20105;-67
2022/04/22 10:00:51;;;;;;;0.10;0.10;;;;;;;;;;4995277;28;20034;-67
2022/04/22 10:03:18;;;;;;;0.50;0.50;;;;;;;;;;4995311;28;20038;-67
2022/04/22 10:05:45;;;;;;;0.20;0.20;;;;;;;;;;4995280;28;20050;-67
2022/04/22 10:08:11;;;;;;;0.28;0.28;;;;;;;;;;4994927;28;20049;-67
2022/04/22 10:10:39;;;;;;;0.10;0.10;;;;;;;;;;4996590;28;20042;-67
2022/04/22 10:13:06;;;;;;;0.10;0.10;;;;;;;;;;4999216;28;20039;-67
2022/04/22 10:15:37;;;;;;;0.10;0.10;;;;;;;;;;4999117;28;20045;-67
2022/04/22 10:18:03;;;;;;;;;;;;;;;;;;4999268;28;20390;-67
2022/04/22 10:20:30;;;;;;;0.52;0.52;;;;;;;;;;4999342;28;19910;-67
2022/04/22 10:22:57;;;;;;;0.30;0.30;;;;;;;;;;4999126;28;20042;-67
2022/04/22 10:25:25;;;;;;;0.40;0.40;;;;;;;;;;4998939;28;20482;-67
2022/04/22 10:27:53;;;;;;;0.32;0.32;;;;;;;;;;4997970;28;20124;-67
2022/04/22 10:30:20;;;;;;;0.20;0.20;;;;;;;;;;4998620;28;20062;-67
2022/04/22 10:32:48;;;;;;;0.30;0.30;;;;;;;;;;4998550;28;20508;-67
2022/04/22 10:35:14;;;;;;;0.30;0.30;;;;;;;;;;4998800;28;20038;-68
2022/04/22 10:37:44;;;;;;;0.32;0.28;;;;;;;;;;4998377;28;20547;-68
2022/04/22 10:40:20;;;;;;;0.10;0.10;;;;;;;;;;4998495;28;20042;-68
2022/04/22 10:42:47;;;;;;;0.40;0.40;;;;;;;;;;4998689;28;20092;-68
2022/04/22 10:47:58;;;;;;;0.40;0.40;;;;;;;;;;4998504;28;20041;-67
2022/04/22 10:50:30;;;;;;;0.82;0.57;;;;;;;;;;4998593;28;20038;-68
2022/04/22 10:53:03;;;;;;;0.20;0.20;;;;;;;;;;4992907;28;20034;-68
2022/04/22 10:55:39;;;;;;;0.20;0.20;;;;;;;;;;4998054;28;20074;-68
2022/04/22 10:58:15;;;;;;;0.20;0.20;;;;;;;;;;4997112;28;20038;-68
2022/04/22 11:00:45;;;;;;;0.20;0.20;;;;;;;;;;4997235;28;20046;-68
2022/04/22 11:03:13;;;;;;;0.30;0.30;;;;;;;;;;4997241;28;20042;-68
2022/04/22 11:05:43;;;;;;;0.57;0.45;;;;;;;;;;4997347;28;20065;-68
2022/04/22 11:08:16;;;;;;;0.10;0.10;;;;;;;;;;4997016;28;20478;-68
2022/04/22 11:10:49;;;;;;;0.30;0.30;;;;;;;;;;4997575;28;20042;-68
2022/04/22 11:13:29;;;;;;;0.10;0.10;;;;;;;;;;4996845;28;20049;-68
2022/04/22 11:16:09;;;;;;;0.20;0.20;;;;;;;;;;4995220;28;20042;-68
2022/04/22 11:18:36;;;;;;;1.33;0.77;;;;;;;;;;4996147;28;20046;-68
2022/04/22 11:21:05;;;;;;;0.20;0.20;;;;;;;;;;4997718;28;20046;-68
2022/04/22 11:23:35;;;;;;;0.20;0.20;;;;;;;;;;4996349;28;20129;-68
2022/04/22 11:26:02;;;;;;;0.13;0.13;;;;;;;;;;4997512;28;20038;-68
2022/04/22 11:28:29;;;;;;;0.20;0.20;;;;;;;;;;5006013;28;20061;-68
2022/04/22 11:30:56;;;;;;;0.50;0.50;;;;;;;;;;5015321;28;20033;-69
2022/04/22 11:33:27;;;;;;;0.20;0.20;;;;;;;;;;5015098;28;20042;-69
2022/04/22 11:35:57;;;;;;;0.30;0.30;;;;;;;;;;5015850;28;20500;-68
2022/04/22 11:38:23;;;;;;;0.20;0.20;;;;;;;;;;5016843;28;20528;-68
2022/04/22 11:40:49;;;;;;;0.10;0.10;;;;;;;;;;5016877;28;20041;-69
2022/04/22 11:43:20;;;;;;;0.30;0.30;;;;;;;;;;5016794;28;20061;-68
2022/04/22 11:45:48;;;;;;;0.10;0.10;;;;;;;;;;5016546;28;20050;-68
2022/04/22 11:48:15;;;;;;;0.10;0.10;;;;;;;;;;5016899;28;20041;-68
2022/04/22 11:50:45;;;;;;;0.20;0.20;;;;;;;;;;5016483;28;20097;-68
2022/04/22 11:53:15;;;;;;;0.20;0.20;;;;;;;;;;5016630;28;20044;-68
2022/04/22 11:55:44;;;;;;;0.10;0.10;;;;;;;;;;5016532;28;20041;-68
2022/04/22 11:58:11;;;;;;;0.20;0.20;;;;;;;;;;5016701;28;20117;-68
2022/04/22 12:06:17;;;;;;;0.20;0.20;;;;;;;;;;5015945;28;20045;-68
2022/04/22 12:08:53;;;;;;;0.20;0.20;;;;;;;;;;5016439;28;20049;-68
2022/04/22 12:11:20;;;;;;;0.28;0.28;;;;;;;;;;5016194;28;20481;-68
2022/04/22 12:13:47;;;;;;;0.28;0.28;;;;;;;;;;5016364;28;20489;-69
2022/04/22 12:16:23;;;;;;;0.20;0.20;;;;;;;;;;5016327;28;20120;-68
2022/04/22 12:18:53;;;;;;;0.22;0.22;;;;;;;;;;5016293;28;20046;-68
2022/04/22 12:21:20;;;;;;;0.10;0.10;;;;;;;;;;5016959;28;20050;-68
2022/04/22 12:23:48;;;;;;;0.10;0.10;;;;;;;;;;5016112;28;20046;-68
2022/04/22 12:26:21;;;;;;;0.13;0.13;;;;;;;;;;5015006;28;20125;-71
2022/04/22 12:28:56;;;;;;;0.10;0.10;;;;;;;;;;5014874;28;20045;-68
2022/04/22 12:31:23;;;;;;;0.10;0.10;;;;;;;;;;5015515;28;20041;-68
2022/04/22 12:34:03;;;;;;;0.20;0.20;;;;;;;;;;5010723;28;20077;-68
2022/04/22 12:36:30;;;;;;;0.30;0.30;;;;;;;;;;5010015;28;20057;-68
2022/04/22 12:38:56;;;;;;;0.20;0.20;;;;;;;;;;4996434;28;20054;-68
2022/04/22 12:41:23;;;;;;;0.10;0.10;;;;;;;;;;5014397;28;20099;-68
2022/04/22 12:43:55;;;;;;;0.20;0.20;;;;;;;;;;5015650;28;20556;-69
2022/04/22 12:52:08;;;;;;;0.70;0.70;;;;;;;;;;5014761;28;20088;-69
2022/04/22 12:54:35;;;;;;;0.20;0.20;;;;;;;;;;5012323;28;20038;-69
2022/04/22 12:57:01;;;;;;;1.45;0.20;;;;;;;;;;5015043;28;20516;-68
2022/04/22 12:59:43;;;;;;;0.20;0.20;;;;;;;;;;5015405;28;20124;-68
2022/04/22 13:02:10;;;;;;;0.10;0.10;;;;;;;;;;5013029;28;20049;-68
2022/04/22 13:04:56;;;;;;;2.92;0.65;;;;;;;;;;5013755;28;20041;-68
2022/04/22 13:07:23;;;;;;;0.15;0.15;;;;;;;;;;5015075;28;20477;-70
2022/04/22 13:09:49;;;;;;;0.10;0.10;;;;;;;;;;5014083;28;20041;-68
2022/04/22 13:12:16;;;;;;;1.90;0.55;;;;;;;;;;5014285;28;20069;-69
2022/04/22 13:14:42;;;;;;;0.22;0.22;;;;;;;;;;5015119;28;20072;-69
2022/04/22 13:17:18;;;;;;;0.20;0.20;;;;;;;;;;5014771;28;20127;-69
2022/04/22 13:19:44;;;;;;;0.30;0.30;;;;;;;;;;5015200;28;20042;-68
2022/04/22 13:22:10;;;;;;;0.25;0.25;;;;;;;;;;5014043;28;20068;-68
2022/04/22 13:24:37;;;;;;;0.43;0.43;;;;;;;;;;5015134;28;20052;-68
2022/04/22 13:27:04;;;;;;;0.43;0.43;;;;;;;;;;5014221;28;20053;-68
2022/04/22 13:29:30;;;;;;;0.28;0.28;;;;;;;;;;5015024;28;20058;-68
2022/04/22 13:31:56;;;;;;;0.20;0.20;;;;;;;;;;5014890;28;20046;-68
2022/04/22 13:34:23;;;;;;;0.10;0.10;;;;;;;;;;5014435;28;20036;-68
2022/04/22 13:36:49;;;;;;;0.30;0.30;;;;;;;;;;5014674;28;20050;-68
2022/04/22 13:39:15;;;;;;;0.47;0.47;;;;;;;;;;5011953;28;20029;-68
2022/04/22 13:41:41;;;;;;;0.20;0.20;;;;;;;;;;5012064;28;20455;-68
2022/04/22 13:44:07;;;;;;;0.10;0.10;;;;;;;;;;5014172;28;20088;-68
2022/04/22 13:52:25;;;;;;;0.30;0.30;;;;;;;;;;5014523;28;20048;-68
2022/04/22 13:54:53;;;;;;;0.10;0.10;;;;;;;;;;5010668;28;20038;-69
2022/04/22 13:57:19;;;;;;;0.10;0.10;;;;;;;;;;5005794;28;20100;-69
2022/04/22 13:59:45;;;;;;;0.20;0.20;;;;;;;;;;5013626;28;20049;-69
2022/04/22 14:02:12;;;;;;;0.17;0.17;;;;;;;;;;5014586;28;20050;-69
2022/04/22 14:04:38;;;;;;;0.10;0.10;;;;;;;;;;5014528;28;20034;-69
2022/04/22 14:07:06;;;;;;;0.28;0.28;;;;;;;;;;5014455;28;20050;-68
2022/04/22 14:09:33;;;;;;;0.17;0.17;;;;;;;;;;5013650;28;20030;-69
2022/04/22 14:11:59;;;;;;;0.17;0.17;;;;;;;;;;5010871;28;20556;-68
2022/04/22 14:14:26;;;;;;;0.25;0.25;;;;;;;;;;5011326;28;20065;-69
2022/04/22 14:16:52;;;;;;;0.32;0.32;;;;;;;;;;5011261;28;20046;-69
2022/04/22 14:19:20;;;;;;;0.10;0.10;;;;;;;;;;5004410;28;20509;-69
2022/04/22 14:21:46;;;;;;;0.17;0.17;;;;;;;;;;4995160;28;20038;-69
2022/04/22 14:24:12;;;;;;;0.20;0.20;;;;;;;;;;5009133;28;20048;-69
2022/04/22 14:26:39;;;;;;;0.20;0.20;;;;;;;;;;5014318;28;20124;-69
2022/04/22 14:29:06;;;;;;;0.10;0.10;;;;;;;;;;5014805;28;20057;-68
2022/04/22 14:31:32;;;;;;;0.20;0.20;;;;;;;;;;4995781;28;20121;-68
2022/04/22 14:33:58;;;;;;;0.22;0.22;;;;;;;;;;5010936;28;20046;-69
2022/04/22 14:36:24;;;;;;;0.28;0.28;;;;;;;;;;5014553;28;20052;-68
2022/04/22 14:38:50;;;;;;;0.10;0.10;;;;;;;;;;5009271;28;20048;-69
2022/04/22 14:41:17;;;;;;;0.28;0.28;;;;;;;;;;5013549;28;20045;-70
2022/04/22 14:43:44;;;;;;;0.20;0.20;;;;;;;;;;5014011;28;20468;-68
2022/04/22 14:46:12;;;;;;;0.30;0.30;;;;;;;;;;5014225;28;20060;-69
2022/04/22 14:48:39;;;;;;;0.17;0.17;;;;;;;;;;5014357;28;20154;-68
2022/04/22 14:51:05;;;;;;;0.20;0.20;;;;;;;;;;5014743;28;20062;-68
2022/04/22 14:53:32;;;;;;;0.30;0.30;;;;;;;;;;5014201;28;20049;-68
2022/04/22 14:55:58;;;;;;;0.10;0.10;;;;;;;;;;5014468;28;20042;-68
2022/04/22 14:58:27;;;;;;;0.30;0.30;;;;;;;;;;5017705;28;20050;-68
2022/04/22 15:00:54;;;;;;;0.10;0.10;;;;;;;;;;5017687;28;20049;-68
2022/04/22 15:03:20;;;;;;;0.10;0.10;;;;;;;;;;5018114;28;20091;-68
2022/04/22 15:05:47;;;;;;;0.28;0.28;;;;;;;;;;5017677;28;20552;-68
2022/04/22 15:08:13;;;;;;;0.20;0.20;;;;;;;;;;5017498;28;20120;-68
2022/04/22 15:10:40;;;;;;;0.20;0.20;;;;;;;;;;5017809;28;20038;-68
2022/04/22 15:13:09;;;;;;;0.10;0.10;;;;;;;;;;5017277;28;20045;-68
2022/04/22 15:15:35;;;;;;;0.20;0.20;;;;;;;;;;5017281;28;20567;-67
2022/04/22 15:26:30;;;;;;;0.10;0.10;;;;;;;;;;5017436;28;20136;-68
2022/04/22 15:28:56;;;;;;;0.17;0.17;;;;;;;;;;5016966;28;20058;-68
2022/04/22 15:31:22;;;;;;;0.13;0.13;;;;;;;;;;5017389;28;20041;-68
2022/04/22 15:33:48;;;;;;;0.10;0.10;;;;;;;;;;5017407;28;20042;-68
2022/04/22 15:36:16;;;;;;;0.17;0.17;;;;;;;;;;5017766;28;20068;-68
2022/04/22 15:38:43;;;;;;;0.20;0.20;;;;;;;;;;5016986;28;20085;-68
2022/04/22 15:41:10;;;;;;;0.30;0.30;;;;;;;;;;5017538;28;20033;-68
2022/04/22 15:43:50;;;;;;;0.10;0.10;;;;;;;;;;5017033;28;20045;-68
2022/04/22 15:46:16;;;;;;;0.20;0.20;;;;;;;;;;5016827;28;20121;-68
2022/04/22 15:48:42;;;;;;;0.20;0.20;;;;;;;;;;5017192;28;20046;-68
2022/04/22 15:51:09;;;;;;;0.10;0.10;;;;;;;;;;5017062;28;20144;-68
2022/04/22 15:53:35;;;;;;;0.20;0.20;;;;;;;;;;5016931;28;20075;-68
2022/04/22 15:56:02;;;;;;;0.30;0.30;;;;;;;;;;5016586;28;20084;-68
2022/04/22 15:58:32;;;;;;;0.28;0.28;;;;;;;;;;5016877;28;20065;-68
2022/04/22 16:00:58;;;;;;;0.80;0.35;;;;;;;;;;5017188;28;20038;-68
2022/04/22 16:03:25;;;;;;;0.52;0.45;;;;;;;;;;5016808;28;20073;-68
2022/04/22 16:05:55;;;;;;;0.10;0.10;;;;;;;;;;5016679;28;20038;-68
2022/04/22 16:08:22;;;;;;;0.10;0.10;;;;;;;;;;5015548;28;20506;-68
2022/04/22 16:10:48;;;;;;;0.20;0.20;;;;;;;;;;5016564;28;20042;-68
2022/04/22 16:15:59;;;;;;;0.20;0.20;;;;;;;;;;4996212;28;20081;-68